createdAt,value
2023-02-02T00:01:25.800Z,11.70
2023-02-02T00:03:52.763Z,11.70
2023-02-02T00:06:20.908Z,11.60
2023-02-02T00:08:48.223Z,11.30
2023-02-02T00:11:15.866Z,11.50
2023-02-02T00:13:42.708Z,11.70
2023-02-02T00:16:30.353Z,11.70
2023-02-02T00:19:07.822Z,11.40
2023-02-02T00:21:38.647Z,11.50
2023-02-02T00:24:07.489Z,11.60
2023-02-02T00:26:34.684Z,11.10
2023-02-02T00:29:09.055Z,11.50
2023-02-02T00:31:35.779Z,11.60
2023-02-02T00:34:02.390Z,11.70
2023-02-02T00:36:29.018Z,11.70
2023-02-02T00:38:55.648Z,11.60
2023-02-02T00:41:23.153Z,11.50
2023-02-02T00:44:09.705Z,11.50
2023-02-02T00:46:39.710Z,11.40
2023-02-02T00:49:12.158Z,11.80
2023-02-02T00:51:38.836Z,12.00
2023-02-02T00:54:05.781Z,12.10
2023-02-02T00:56:32.657Z,11.80
2023-02-02T00:58:59.272Z,11.70
2023-02-02T01:01:26.006Z,11.30
2023-02-02T01:03:52.788Z,11.10
2023-02-02T01:06:19.436Z,10.90
2023-02-02T01:08:46.351Z,11.10
2023-02-02T01:11:12.968Z,11.20
2023-02-02T01:13:39.753Z,11.60
2023-02-02T01:16:07.348Z,11.50
2023-02-02T01:18:33.980Z,11.60
2023-02-02T01:21:04.352Z,11.70
2023-02-02T01:23:31.653Z,11.60
2023-02-02T01:26:00.483Z,11.40
2023-02-02T01:28:28.982Z,11.50
2023-02-02T01:30:56.235Z,11.40
2023-02-02T01:33:24.173Z,11.60
2023-02-02T01:35:55.514Z,11.60
2023-02-02T01:38:24.565Z,11.40
2023-02-02T01:40:54.510Z,11.80
2023-02-02T01:43:28.105Z,11.50
2023-02-02T01:45:56.491Z,11.30
2023-02-02T01:48:28.213Z,11.30
2023-02-02T01:50:59.059Z,11.60
2023-02-02T01:53:26.228Z,11.70
2023-02-02T01:55:53.079Z,11.60
2023-02-02T01:58:24.796Z,11.50
2023-02-02T02:00:52.834Z,11.40
2023-02-02T02:03:22.932Z,11.70
2023-02-02T02:06:06.665Z,11.70
2023-02-02T02:08:47.403Z,11.70
2023-02-02T02:11:14.524Z,11.70
2023-02-02T02:14:00.402Z,11.90
2023-02-02T02:17:05.321Z,11.90
2023-02-02T02:20:26.410Z,11.90
2023-02-02T02:23:50.118Z,11.80
2023-02-02T02:26:56.465Z,11.90
2023-02-02T02:30:02.979Z,11.80
2023-02-02T02:33:03.826Z,11.70
2023-02-02T02:35:30.831Z,11.80
2023-02-02T02:38:11.199Z,11.40
2023-02-02T02:40:49.466Z,11.20
2023-02-02T02:43:21.364Z,11.30
2023-02-02T02:45:49.687Z,11.40
2023-02-02T02:48:16.849Z,11.20
2023-02-02T02:50:43.980Z,11.50
2023-02-02T02:53:23.686Z,11.30
2023-02-02T02:56:23.049Z,11.30
2023-02-02T02:58:53.720Z,11.50
2023-02-02T03:01:59.567Z,11.30
2023-02-02T03:04:40.045Z,11.10
2023-02-02T03:07:16.396Z,10.80
2023-02-02T03:09:45.584Z,11.00
2023-02-02T03:12:12.581Z,11.00
2023-02-02T03:14:39.421Z,11.10
2023-02-02T03:17:06.060Z,11.40
2023-02-02T03:19:32.725Z,11.00
2023-02-02T03:21:59.382Z,10.80
2023-02-02T03:24:26.097Z,11.00
2023-02-02T03:26:53.131Z,10.80
2023-02-02T03:29:19.939Z,11.10
2023-02-02T03:31:47.172Z,11.30
2023-02-02T03:34:13.862Z,11.30
2023-02-02T03:36:40.463Z,11.60
2023-02-02T03:39:07.085Z,11.30
2023-02-02T03:41:33.673Z,11.10
2023-02-02T03:44:00.263Z,11.30
2023-02-02T03:46:26.961Z,11.40
2023-02-02T03:48:53.587Z,11.30
2023-02-02T03:51:20.207Z,11.10
2023-02-02T03:53:49.694Z,11.30
2023-02-02T03:56:16.696Z,11.00
2023-02-02T03:58:43.381Z,10.70
2023-02-02T04:01:15.134Z,10.80
2023-02-02T04:03:42.321Z,10.80
2023-02-02T04:06:09.136Z,10.60
2023-02-02T04:08:36.067Z,10.90
2023-02-02T04:11:02.814Z,11.00
2023-02-02T04:13:29.435Z,11.00
2023-02-02T04:16:02.193Z,10.90
2023-02-02T04:18:29.457Z,11.10
2023-02-02T04:21:00.512Z,11.00
2023-02-02T04:23:28.448Z,10.70
2023-02-02T04:25:55.078Z,11.10
2023-02-02T04:28:23.679Z,10.90
2023-02-02T04:30:51.256Z,11.10
2023-02-02T04:33:17.956Z,11.10
2023-02-02T04:35:44.988Z,11.00
2023-02-02T04:38:12.438Z,11.40
2023-02-02T04:40:43.553Z,11.50
2023-02-02T04:43:11.046Z,11.70
2023-02-02T04:45:38.349Z,11.90
2023-02-02T04:48:05.589Z,12.00
2023-02-02T04:50:32.201Z,11.70
2023-02-02T04:52:58.893Z,11.20
2023-02-02T04:55:25.985Z,11.00
2023-02-02T04:57:52.706Z,10.70
2023-02-02T05:00:19.611Z,10.60
2023-02-02T05:02:46.345Z,10.20
2023-02-02T05:05:14.364Z,10.50
2023-02-02T05:07:41.064Z,10.70
2023-02-02T05:10:08.977Z,10.50
2023-02-02T05:12:35.665Z,10.80
2023-02-02T05:15:03.454Z,10.90
2023-02-02T05:17:30.266Z,10.60
2023-02-02T05:19:57.042Z,10.90
2023-02-02T05:22:23.708Z,10.60
2023-02-02T05:24:50.444Z,10.50
2023-02-02T05:27:17.052Z,10.40
2023-02-02T05:29:43.656Z,10.80
2023-02-02T05:32:10.283Z,11.40
2023-02-02T05:34:36.896Z,11.40
2023-02-02T05:37:03.496Z,10.30
2023-02-02T05:39:30.117Z,11.20
2023-02-02T05:41:56.825Z,11.40
2023-02-02T05:44:23.512Z,11.30
2023-02-02T05:46:50.103Z,10.90
2023-02-02T05:49:16.740Z,10.80
2023-02-02T05:51:47.137Z,10.40
2023-02-02T05:54:17.246Z,10.60
2023-02-02T05:56:43.881Z,10.50
2023-02-02T05:59:10.451Z,10.50
2023-02-02T06:01:37.077Z,10.50
2023-02-02T06:04:03.824Z,10.50
2023-02-02T06:06:30.432Z,10.70
2023-02-02T06:08:57.029Z,10.70
2023-02-02T06:11:23.710Z,10.50
2023-02-02T06:13:50.550Z,10.40
2023-02-02T06:16:17.348Z,10.40
2023-02-02T06:18:45.035Z,10.70
2023-02-02T06:21:12.085Z,10.50
2023-02-02T06:23:38.741Z,10.50
2023-02-02T06:26:05.337Z,10.60
2023-02-02T06:28:32.247Z,10.80
2023-02-02T06:31:06.780Z,10.60
2023-02-02T06:33:34.051Z,11.00
2023-02-02T06:36:02.274Z,10.90
2023-02-02T06:38:29.294Z,10.60
2023-02-02T06:40:59.334Z,10.50
2023-02-02T06:43:26.120Z,10.30
2023-02-02T06:45:52.793Z,10.50
2023-02-02T06:48:19.463Z,10.30
2023-02-02T06:50:46.085Z,10.40
2023-02-02T06:53:12.670Z,10.50
2023-02-02T06:55:39.256Z,10.70
2023-02-02T06:58:06.028Z,10.80
2023-02-02T07:00:33.174Z,10.60
2023-02-02T07:02:59.820Z,10.60
2023-02-02T07:05:30.410Z,10.70
2023-02-02T07:07:57.341Z,10.60
2023-02-02T07:11:12.800Z,10.50
2023-02-02T07:13:10.562Z,10.30
2023-02-02T07:15:39.895Z,10.80
2023-02-02T07:18:06.852Z,10.80
2023-02-02T07:20:33.937Z,10.80
2023-02-02T07:23:02.530Z,10.50
2023-02-02T07:25:29.143Z,10.40
2023-02-02T07:27:55.752Z,10.40
2023-02-02T07:30:22.517Z,10.40
2023-02-02T07:32:50.188Z,10.20
2023-02-02T07:35:17.490Z,10.30
2023-02-02T07:37:44.247Z,10.20
2023-02-02T07:40:11.466Z,10.20
2023-02-02T07:42:38.130Z,10.40
2023-02-02T07:45:26.521Z,10.30
2023-02-02T07:47:57.184Z,10.50
2023-02-02T07:50:25.224Z,10.40
2023-02-02T07:52:52.542Z,10.40
2023-02-02T07:55:19.571Z,10.40
2023-02-02T07:57:46.272Z,10.40
2023-02-02T08:00:13.454Z,10.50
2023-02-02T08:02:40.222Z,10.40
2023-02-02T08:05:07.475Z,10.30
2023-02-02T08:07:34.957Z,10.30
2023-02-02T08:10:01.650Z,10.40
2023-02-02T08:12:28.370Z,10.50
2023-02-02T08:14:55.096Z,10.60
2023-02-02T08:17:23.264Z,10.40
2023-02-02T08:19:49.976Z,10.30
2023-02-02T08:22:17.895Z,10.50
2023-02-02T08:24:45.456Z,10.60
2023-02-02T08:27:12.062Z,10.30
2023-02-02T08:29:39.472Z,10.60
2023-02-02T08:32:06.150Z,10.50
2023-02-02T08:34:36.730Z,10.10
2023-02-02T08:37:04.005Z,10.10
2023-02-02T08:39:30.663Z,10.10
2023-02-02T08:41:57.816Z,10.00
2023-02-02T08:44:26.408Z,9.90
2023-02-02T08:47:11.336Z,9.80
2023-02-02T08:49:38.413Z,9.90
2023-02-02T08:52:05.083Z,9.90
2023-02-02T08:54:31.706Z,10.10
2023-02-02T08:56:58.317Z,10.20
2023-02-02T08:59:24.998Z,10.20
2023-02-02T09:01:51.684Z,10.60
2023-02-02T09:04:18.387Z,10.70
2023-02-02T09:06:45.628Z,10.60
2023-02-02T09:09:14.834Z,10.50
2023-02-02T09:11:42.509Z,10.30
2023-02-02T09:14:12.584Z,10.40
2023-02-02T09:16:39.700Z,10.50
2023-02-02T09:19:06.749Z,10.50
2023-02-02T09:21:37.148Z,10.40
2023-02-02T09:24:12.533Z,10.50
2023-02-02T09:26:40.364Z,10.80
2023-02-02T09:29:11.302Z,11.10
2023-02-02T09:31:38.488Z,11.30
2023-02-02T09:34:10.210Z,11.00
2023-02-02T09:36:41.002Z,10.90
2023-02-02T09:39:08.434Z,10.90
2023-02-02T09:41:38.063Z,10.80
2023-02-02T09:44:29.121Z,10.80
2023-02-02T09:47:20.117Z,10.50
2023-02-02T09:49:52.035Z,10.80
2023-02-02T09:52:49.570Z,11.00
2023-02-02T09:55:19.778Z,11.10
2023-02-02T09:57:51.796Z,10.90
2023-02-02T10:00:42.920Z,11.00
2023-02-02T10:03:19.242Z,11.00
2023-02-02T10:05:53.038Z,11.30
2023-02-02T10:08:35.923Z,11.30
2023-02-02T10:11:30.834Z,11.50
2023-02-02T10:14:04.835Z,11.30
2023-02-02T10:16:33.937Z,11.30
2023-02-02T10:19:09.569Z,11.30
2023-02-02T10:21:46.639Z,11.20
2023-02-02T10:24:19.804Z,11.20
2023-02-02T10:26:50.280Z,11.10
2023-02-02T10:29:23.524Z,11.20
2023-02-02T10:32:22.636Z,11.40
2023-02-02T10:35:13.624Z,11.60
2023-02-02T10:37:59.406Z,11.30
2023-02-02T10:40:37.209Z,11.30
2023-02-02T10:43:37.882Z,11.20
2023-02-02T10:46:05.963Z,11.40
2023-02-02T10:48:38.090Z,11.50
2023-02-02T10:51:24.746Z,11.60
2023-02-02T10:53:54.087Z,11.60
2023-02-02T10:56:35.473Z,11.50
2023-02-02T10:59:11.457Z,11.60
2023-02-02T11:01:38.124Z,11.60
2023-02-02T11:04:23.333Z,11.70
2023-02-02T11:06:49.958Z,11.90
2023-02-02T11:09:28.371Z,11.80
2023-02-02T11:12:03.244Z,11.60
2023-02-02T11:15:05.162Z,11.70
2023-02-02T11:17:33.038Z,11.60
2023-02-02T11:19:59.790Z,11.60
2023-02-02T11:22:30.856Z,11.40
2023-02-02T11:25:05.615Z,11.40
2023-02-02T11:27:39.973Z,11.10
2023-02-02T11:30:31.435Z,11.10
2023-02-02T11:32:58.153Z,11.20
2023-02-02T11:35:29.581Z,11.40
2023-02-02T11:37:59.133Z,11.50
2023-02-02T11:40:42.128Z,11.40
2023-02-02T11:43:23.153Z,11.40
2023-02-02T11:46:00.260Z,11.40
2023-02-02T11:48:39.652Z,11.20
2023-02-02T11:51:08.237Z,11.20
2023-02-02T11:53:46.468Z,11.20
2023-02-02T11:56:23.474Z,11.00
2023-02-02T11:58:52.590Z,11.00
2023-02-02T12:01:25.652Z,11.10
2023-02-02T12:03:54.999Z,11.10
2023-02-02T12:06:27.116Z,11.40
2023-02-02T12:09:01.320Z,11.50
2023-02-02T12:11:47.744Z,11.30
2023-02-02T12:14:24.720Z,11.30
2023-02-02T12:17:19.816Z,11.20
2023-02-02T12:20:12.912Z,11.60
2023-02-02T12:23:07.218Z,11.80
2023-02-02T12:25:52.639Z,11.70
2023-02-02T12:28:25.362Z,11.70
2023-02-02T12:31:09.401Z,11.60
2023-02-02T12:33:46.156Z,11.50
2023-02-02T12:36:46.332Z,11.60
2023-02-02T12:39:46.654Z,11.50
2023-02-02T12:42:34.071Z,11.70
2023-02-02T12:45:31.973Z,11.60
2023-02-02T12:48:04.575Z,11.60
2023-02-02T12:50:44.123Z,11.60
2023-02-02T12:53:26.717Z,11.70
2023-02-02T12:56:08.321Z,11.80
2023-02-02T12:58:49.683Z,11.80
2023-02-02T13:01:29.833Z,11.60
2023-02-02T13:04:31.117Z,11.50
2023-02-02T13:07:28.455Z,11.40
2023-02-02T13:10:24.730Z,11.10
2023-02-02T13:13:01.419Z,11.20
2023-02-02T13:15:36.287Z,11.10
2023-02-02T13:18:16.580Z,10.90
2023-02-02T13:20:56.543Z,10.90
2023-02-02T13:23:32.246Z,11.00
2023-02-02T13:26:20.287Z,11.00
2023-02-02T13:29:09.290Z,11.00
2023-02-02T13:31:45.610Z,11.20
2023-02-02T13:34:24.517Z,11.40
2023-02-02T13:36:59.362Z,11.70
2023-02-02T13:39:35.811Z,11.90
2023-02-02T13:42:05.829Z,12.00
2023-02-02T13:44:37.306Z,12.10
2023-02-02T13:47:30.702Z,12.00
2023-02-02T13:50:06.435Z,11.90
2023-02-02T13:53:06.197Z,11.80
2023-02-02T13:55:39.707Z,12.30
2023-02-02T13:58:23.517Z,12.30
2023-02-02T14:00:56.625Z,12.20
2023-02-02T14:03:38.700Z,12.20
2023-02-02T14:06:13.589Z,11.90
2023-02-02T14:09:05.350Z,12.00
2023-02-02T14:11:38.697Z,11.70
2023-02-02T14:14:33.317Z,11.70
2023-02-02T14:17:07.338Z,11.90
2023-02-02T14:19:41.996Z,12.10
2023-02-02T14:22:08.850Z,12.00
2023-02-02T14:24:35.406Z,12.30
2023-02-02T14:27:08.899Z,12.10
2023-02-02T14:29:46.539Z,12.20
2023-02-02T14:32:28.671Z,12.30
2023-02-02T14:34:56.204Z,12.40
2023-02-02T14:37:22.913Z,12.50
2023-02-02T14:40:10.670Z,12.60
2023-02-02T14:43:05.327Z,12.30
2023-02-02T14:45:34.410Z,12.00
2023-02-02T14:48:23.068Z,11.90
2023-02-02T14:50:52.721Z,11.70
2023-02-02T14:53:33.523Z,11.50
2023-02-02T14:56:05.368Z,11.40
2023-02-02T14:58:37.511Z,11.50
2023-02-02T15:01:24.717Z,11.20
2023-02-02T15:04:00.411Z,11.00
2023-02-02T15:06:36.279Z,11.20
2023-02-02T15:09:34.564Z,11.10
2023-02-02T15:12:03.925Z,11.10
2023-02-02T15:14:36.868Z,10.90
2023-02-02T15:17:07.039Z,10.80
2023-02-02T15:19:40.015Z,10.70
2023-02-02T15:22:43.106Z,10.80
2023-02-02T15:25:37.673Z,10.80
2023-02-02T15:28:38.942Z,10.80
2023-02-02T15:31:11.846Z,10.70
2023-02-02T15:33:54.374Z,10.70
2023-02-02T15:36:47.438Z,10.70
2023-02-02T15:39:22.736Z,10.60
2023-02-02T15:42:10.494Z,10.70
2023-02-02T15:44:38.675Z,10.60
2023-02-02T15:47:12.527Z,10.60
2023-02-02T15:49:39.646Z,10.50
2023-02-02T15:52:32.859Z,10.50
2023-02-02T15:55:00.472Z,10.40
2023-02-02T15:57:34.049Z,10.40
2023-02-02T16:00:22.689Z,10.40
2023-02-02T16:03:12.606Z,10.40
2023-02-02T16:05:47.435Z,10.40
2023-02-02T16:08:18.289Z,10.40
2023-02-02T16:10:46.822Z,10.40
2023-02-02T16:13:33.236Z,10.40
2023-02-02T16:16:02.758Z,10.30
2023-02-02T16:18:30.692Z,10.30
2023-02-02T16:24:00.559Z,10.30
2023-02-02T16:26:31.320Z,10.20
2023-02-02T16:28:58.251Z,10.20
2023-02-02T16:31:25.914Z,10.20
2023-02-02T16:33:52.813Z,10.30
2023-02-02T16:36:26.699Z,10.20
2023-02-02T16:38:54.915Z,10.20
2023-02-02T16:41:32.742Z,10.20
2023-02-02T16:44:28.660Z,10.20
2023-02-02T16:46:56.172Z,10.20
2023-02-02T16:49:24.754Z,10.20
2023-02-02T16:52:02.104Z,10.20
2023-02-02T16:54:30.540Z,10.20
2023-02-02T16:57:02.405Z,10.20
2023-02-02T16:59:34.968Z,10.20
2023-02-02T17:02:16.398Z,10.20
2023-02-02T17:04:49.607Z,10.20
2023-02-02T17:07:17.394Z,10.20
2023-02-02T17:10:10.960Z,10.20
2023-02-02T17:12:37.796Z,10.10
2023-02-02T17:15:16.842Z,10.10
2023-02-02T17:17:44.292Z,10.10
2023-02-02T17:20:12.662Z,10.10
2023-02-02T17:22:45.589Z,10.10
2023-02-02T17:25:17.796Z,10.00
2023-02-02T17:27:45.548Z,10.00
2023-02-02T17:30:17.533Z,10.00
2023-02-02T17:32:44.167Z,10.00
2023-02-02T17:35:16.419Z,10.00
2023-02-02T17:37:43.509Z,10.00
2023-02-02T17:40:17.614Z,10.00
2023-02-02T17:42:45.574Z,10.00
2023-02-02T17:45:38.430Z,10.00
2023-02-02T17:48:05.888Z,10.00
2023-02-02T17:50:33.784Z,10.00
2023-02-02T17:53:00.562Z,10.00
2023-02-02T17:55:30.433Z,10.00
2023-02-02T17:57:57.304Z,9.90
2023-02-02T18:00:27.332Z,9.90
2023-02-02T18:03:00.946Z,9.90
2023-02-02T18:05:28.024Z,9.90
2023-02-02T18:07:54.912Z,9.90
2023-02-02T18:10:24.567Z,9.90
2023-02-02T18:12:51.703Z,9.90
2023-02-02T18:15:18.405Z,9.90
2023-02-02T18:17:44.981Z,9.90
2023-02-02T18:20:14.786Z,9.90
2023-02-02T18:22:44.141Z,9.90
2023-02-02T18:25:11.563Z,9.90
2023-02-02T18:27:38.343Z,9.90
2023-02-02T18:30:05.563Z,9.90
2023-02-02T18:32:37.034Z,9.90
2023-02-02T18:35:04.925Z,9.90
2023-02-02T18:37:31.757Z,9.90
2023-02-02T18:39:58.400Z,9.90
2023-02-02T18:42:29.461Z,9.90
2023-02-02T18:44:56.620Z,9.90
2023-02-02T18:47:23.282Z,9.90
2023-02-02T18:49:49.960Z,9.90
2023-02-02T18:52:18.922Z,9.90
2023-02-02T18:54:47.876Z,9.80
2023-02-02T18:57:15.438Z,9.80
2023-02-02T18:59:43.172Z,9.80
2023-02-02T19:02:19.536Z,9.80
2023-02-02T19:05:05.291Z,9.80
2023-02-02T19:07:50.920Z,9.80
2023-02-02T19:10:18.745Z,9.80
2023-02-02T19:13:10.058Z,9.80
2023-02-02T19:15:42.297Z,9.70
2023-02-02T19:18:15.419Z,9.70
2023-02-02T19:20:43.289Z,9.70
2023-02-02T19:23:17.957Z,9.70
2023-02-02T19:25:51.018Z,9.70
2023-02-02T19:28:29.626Z,9.80
2023-02-02T19:31:01.544Z,9.80
2023-02-02T19:33:39.532Z,9.70
2023-02-02T19:36:12.797Z,9.70
2023-02-02T19:38:39.380Z,9.70
2023-02-02T19:41:20.133Z,9.70
2023-02-02T19:43:48.376Z,9.70
2023-02-02T19:46:21.467Z,9.60
2023-02-02T19:48:51.731Z,9.60
2023-02-02T19:51:33.918Z,9.60
2023-02-02T19:54:01.492Z,9.70
2023-02-02T19:57:31.144Z,9.70
2023-02-02T19:59:59.801Z,9.70
2023-02-02T20:02:58.704Z,9.60
2023-02-02T20:05:38.530Z,9.70
2023-02-02T20:08:38.273Z,9.80
2023-02-02T20:11:23.513Z,9.70
2023-02-02T20:13:51.451Z,9.70
2023-02-02T20:16:19.879Z,9.70
2023-02-02T20:18:53.883Z,9.70
2023-02-02T20:21:32.743Z,9.80
2023-02-02T20:23:59.865Z,9.90
2023-02-02T20:26:33.154Z,9.90
2023-02-02T20:29:11.118Z,9.80
2023-02-02T20:31:38.515Z,9.80
2023-02-02T20:34:32.879Z,9.80
2023-02-02T20:37:01.546Z,9.70
2023-02-02T20:39:37.221Z,9.60
2023-02-02T20:42:04.686Z,9.70
2023-02-02T20:44:32.969Z,9.60
2023-02-02T20:47:00.279Z,9.60
2023-02-02T20:49:31.463Z,9.60
2023-02-02T20:52:00.509Z,9.50
2023-02-02T20:54:28.179Z,9.40
2023-02-02T20:56:54.862Z,9.40
2023-02-02T20:59:21.793Z,9.50
2023-02-02T21:01:52.476Z,9.50
2023-02-02T21:04:20.105Z,9.50
2023-02-02T21:06:48.658Z,9.40
2023-02-02T21:09:15.897Z,9.30
2023-02-02T21:11:43.324Z,9.40
2023-02-02T21:14:10.036Z,9.20
2023-02-02T21:16:36.724Z,9.20
2023-02-02T21:19:03.439Z,9.30
2023-02-02T21:21:30.280Z,9.30
2023-02-02T21:23:57.141Z,9.30
2023-02-02T21:26:29.735Z,9.30
2023-02-02T21:28:58.160Z,9.20
2023-02-02T21:31:25.632Z,9.30
2023-02-02T21:33:53.113Z,9.20
2023-02-02T21:36:36.059Z,9.20
2023-02-02T21:39:16.385Z,9.00
2023-02-02T21:41:43.577Z,9.10
2023-02-02T21:44:13.870Z,9.20
2023-02-02T21:46:40.650Z,9.10
2023-02-02T21:49:20.080Z,8.90
2023-02-02T21:51:46.731Z,8.80
2023-02-02T21:54:37.011Z,8.80
2023-02-02T21:57:19.220Z,8.90
2023-02-02T21:59:49.182Z,8.80
2023-02-02T22:02:45.227Z,8.80
2023-02-02T22:05:24.073Z,9.00
2023-02-02T22:07:53.397Z,9.10
2023-02-02T22:10:45.510Z,9.10
2023-02-02T22:13:24.952Z,9.00
2023-02-02T22:15:55.956Z,8.90
2023-02-02T22:18:28.310Z,8.80
2023-02-02T22:20:56.544Z,8.90
2023-02-02T22:23:26.446Z,8.90
2023-02-02T22:25:57.936Z,8.80
2023-02-02T22:28:45.726Z,8.70
2023-02-02T22:31:12.361Z,8.80
2023-02-02T22:33:39.069Z,9.00
2023-02-02T22:36:06.008Z,8.90
2023-02-02T22:38:35.902Z,8.80
2023-02-02T22:41:02.694Z,8.80
2023-02-02T22:43:29.679Z,9.00
2023-02-02T22:45:56.311Z,8.80
2023-02-02T22:48:22.992Z,8.80
2023-02-02T22:50:52.775Z,8.90
2023-02-02T22:53:19.460Z,9.00
2023-02-02T22:55:46.226Z,8.90
2023-02-02T22:58:13.138Z,8.70
2023-02-02T23:00:39.937Z,8.50
2023-02-02T23:03:06.783Z,8.40
2023-02-02T23:05:33.648Z,8.60
2023-02-02T23:08:00.347Z,8.70
2023-02-02T23:10:28.177Z,8.50
2023-02-02T23:12:58.246Z,8.60
2023-02-02T23:15:25.031Z,8.50
2023-02-02T23:17:52.015Z,8.70
2023-02-02T23:20:19.048Z,8.60
2023-02-02T23:22:45.802Z,8.50
2023-02-02T23:25:13.472Z,8.40
2023-02-02T23:27:40.679Z,8.50
2023-02-02T23:30:08.472Z,8.60
2023-02-02T23:32:35.538Z,8.80
2023-02-02T23:35:02.574Z,8.80
2023-02-02T23:37:29.312Z,8.70
2023-02-02T23:39:58.756Z,8.70
2023-02-02T23:42:25.725Z,8.60
2023-02-02T23:44:52.606Z,8.60
2023-02-02T23:47:19.449Z,8.60
2023-02-02T23:49:46.284Z,8.70
2023-02-02T23:52:13.509Z,8.60
2023-02-02T23:54:40.508Z,8.80
2023-02-02T23:57:10.248Z,8.80
2023-02-02T23:59:36.925Z,8.90
